Time;durP1;ratioP1;P1;durP2;ratioP2;P2;SDS_P1;SDS_P2;PMS_P1;PMS_P2;Temp;Humidity;BMP_temperature;BMP_pressure;BME280_temperature;BME280_humidity;BME280_pressure;Samples;Min_cycle;Max_cycle;Signal;HPM_P1;HPM_P2
2022/07/12 00:01:18;;;;;;;1.53;0.67;;;16.30;65.40;;;;;;5047813;28;20214;-60
2022/07/12 00:03:43;;;;;;;1.67;0.80;;;16.50;65.00;;;;;;5070461;28;20274;-60
2022/07/12 00:06:09;;;;;;;0.80;0.80;;;16.50;64.80;;;;;;5031271;28;20342;-60
2022/07/12 00:08:35;;;;;;;1.27;0.80;;;16.60;63.90;;;;;;5030902;28;20199;-60
2022/07/12 00:11:01;;;;;;;2.30;0.60;;;16.60;63.50;;;;;;5038929;28;20203;-60
2022/07/12 00:13:26;;;;;;;2.40;0.90;;;16.50;64.70;;;;;;5042062;28;20586;-60
2022/07/12 00:15:52;;;;;;;2.07;0.80;;;16.50;65.80;;;;;;5039442;28;20229;-60
2022/07/12 00:18:18;;;;;;;0.97;0.77;;;16.50;66.30;;;;;;5053461;28;20190;-60
2022/07/12 00:20:43;;;;;;;1.60;0.97;;;16.40;66.10;;;;;;5054999;28;20218;-60
2022/07/12 00:23:09;;;;;;;3.23;1.00;;;16.40;67.20;;;;;;5036734;28;20190;-60
2022/07/12 00:25:35;;;;;;;2.17;0.97;;;16.50;66.70;;;;;;5056406;28;20283;-60
2022/07/12 00:28:00;;;;;;;1.87;1.00;;;16.50;66.80;;;;;;5024696;28;20239;-60
2022/07/12 00:30:26;;;;;;;0.93;0.80;;;16.50;66.40;;;;;;5038220;28;20199;-60
2022/07/12 00:32:52;;;;;;;0.70;0.70;;;16.60;65.00;;;;;;5043494;28;20248;-60
2022/07/12 00:35:17;;;;;;;0.90;0.73;;;16.50;65.50;;;;;;5032123;28;20298;-60
2022/07/12 00:37:43;;;;;;;1.87;0.97;;;16.60;65.60;;;;;;5041316;28;20202;-60
2022/07/12 00:40:10;;;;;;;0.80;0.80;;;16.60;66.10;;;;;;5036145;28;20191;-60
2022/07/12 00:42:38;;;;;;;0.90;0.90;;;16.50;66.60;;;;;;5057362;28;20190;-60
2022/07/12 00:45:05;;;;;;;1.23;0.80;;;16.50;66.30;;;;;;5066413;28;20655;-60
2022/07/12 00:47:37;;;;;;;1.57;1.00;;;16.50;64.80;;;;;;5052700;28;20221;-60
2022/07/12 00:50:05;;;;;;;1.53;1.00;;;16.50;65.30;;;;;;5064646;28;20259;-61
2022/07/12 00:52:31;;;;;;;0.70;0.70;;;16.50;66.20;;;;;;5050532;28;20187;-60
2022/07/12 00:54:56;;;;;;;3.10;0.90;;;16.50;66.20;;;;;;5022494;28;20248;-60
2022/07/12 00:57:23;;;;;;;1.93;0.60;;;16.40;64.60;;;;;;5034249;28;20184;-60
2022/07/12 00:59:48;;;;;;;2.00;1.10;;;16.50;65.50;;;;;;5041533;28;20190;-60
2022/07/12 01:02:14;;;;;;;1.17;0.77;;;16.50;65.20;;;;;;5025873;28;20202;-60
2022/07/12 01:04:41;;;;;;;0.73;0.60;;;16.50;64.10;;;;;;5035450;28;20293;-60
2022/07/12 01:07:06;;;;;;;2.03;0.90;;;16.60;64.70;;;;;;5043842;28;20598;-60
2022/07/12 01:09:32;;;;;;;0.70;0.70;;;16.70;64.40;;;;;;5020021;28;20191;-60
2022/07/12 01:11:59;;;;;;;1.10;0.90;;;16.60;64.70;;;;;;5052839;28;20186;-60
2022/07/12 01:14:25;;;;;;;2.00;0.80;;;16.60;65.30;;;;;;5055723;28;20227;-60
2022/07/12 01:16:51;;;;;;;0.87;0.60;;;16.60;65.60;;;;;;5041243;28;20215;-60
2022/07/12 01:19:20;;;;;;;0.60;0.60;;;16.60;63.70;;;;;;5035649;28;20206;-60
2022/07/12 01:21:50;;;;;;;0.93;0.90;;;16.70;63.80;;;;;;5060840;28;20186;-60
2022/07/12 01:24:18;;;;;;;0.83;0.70;;;16.70;64.30;;;;;;5052267;28;20216;-60
2022/07/12 01:26:44;;;;;;;1.27;0.70;;;16.80;64.60;;;;;;5054808;28;20285;-60
2022/07/12 01:29:10;;;;;;;1.17;0.70;;;16.70;65.00;;;;;;5036357;28;20258;-60
2022/07/12 01:31:36;;;;;;;2.37;0.80;;;16.70;65.80;;;;;;5053153;28;20201;-60
2022/07/12 01:34:03;;;;;;;0.90;0.80;;;16.70;65.00;;;;;;5035961;28;20186;-61
2022/07/12 01:36:29;;;;;;;2.57;0.77;;;16.60;64.20;;;;;;5046622;28;20218;-60
2022/07/12 01:38:55;;;;;;;0.87;0.87;;;16.60;64.80;;;;;;5052686;28;20186;-60
2022/07/12 01:41:23;;;;;;;0.70;0.63;;;16.60;65.70;;;;;;5036097;28;20201;-60
2022/07/12 01:43:50;;;;;;;1.83;0.80;;;16.60;66.50;;;;;;5061550;28;20210;-60
2022/07/12 01:46:16;;;;;;;0.67;0.67;;;16.70;66.30;;;;;;5047232;28;20187;-60
2022/07/12 01:48:42;;;;;;;1.87;0.80;;;16.60;66.20;;;;;;5051241;28;20190;-60
2022/07/12 01:51:07;;;;;;;1.20;0.80;;;16.50;67.10;;;;;;5043516;28;20194;-60
2022/07/12 01:53:36;;;;;;;1.83;0.90;;;16.40;67.90;;;;;;5025487;28;20186;-60
2022/07/12 01:56:05;;;;;;;1.17;0.77;;;16.50;67.70;;;;;;5058160;28;20202;-60
2022/07/12 01:58:32;;;;;;;2.10;0.90;;;16.50;67.70;;;;;;5057700;28;20221;-60
2022/07/12 02:00:58;;;;;;;0.70;0.70;;;16.50;66.90;;;;;;5043872;28;20184;-60
2022/07/12 02:03:24;;;;;;;1.00;0.90;;;16.60;66.50;;;;;;5023611;28;20190;-60
2022/07/12 02:05:50;;;;;;;0.80;0.80;;;16.50;67.20;;;;;;5059903;28;20241;-60
2022/07/12 02:08:16;;;;;;;0.80;0.80;;;16.60;67.90;;;;;;5064845;28;20189;-60
2022/07/12 02:10:45;;;;;;;1.23;1.00;;;16.50;67.50;;;;;;5024667;28;20194;-60
2022/07/12 02:13:10;;;;;;;2.13;1.10;;;16.60;66.70;;;;;;5052778;28;20202;-60
2022/07/12 02:15:36;;;;;;;1.17;1.00;;;16.50;66.90;;;;;;5022042;28;20211;-60
2022/07/12 02:18:02;;;;;;;0.80;0.80;;;16.40;68.20;;;;;;5022857;28;20229;-60
2022/07/12 02:20:28;;;;;;;1.00;0.87;;;16.40;68.80;;;;;;5058891;28;20185;-60
2022/07/12 02:22:54;;;;;;;0.97;0.80;;;16.50;68.60;;;;;;5043712;28;20224;-60
2022/07/12 02:25:19;;;;;;;1.33;0.90;;;16.40;68.40;;;;;;5046169;28;20214;-60
2022/07/12 02:27:45;;;;;;;1.13;0.70;;;16.40;68.50;;;;;;5039032;28;20194;-60
2022/07/12 02:30:11;;;;;;;1.17;1.03;;;16.30;68.20;;;;;;5024594;28;20285;-60
2022/07/12 02:32:38;;;;;;;2.30;0.83;;;16.30;68.40;;;;;;5055958;28;20217;-60
2022/07/12 02:35:07;;;;;;;0.93;0.87;;;16.40;67.60;;;;;;5055408;28;20190;-60
2022/07/12 02:37:32;;;;;;;1.87;1.10;;;16.50;67.80;;;;;;5054117;28;20183;-60
2022/07/12 02:42:43;;;;;;;1.57;0.93;;;16.40;67.50;;;;;;5036157;28;20214;-60
2022/07/12 02:45:10;;;;;;;2.93;1.00;;;16.40;68.00;;;;;;5047946;28;20187;-60
2022/07/12 02:47:39;;;;;;;1.20;1.03;;;16.40;68.40;;;;;;5073993;28;20240;-60
2022/07/12 02:50:06;;;;;;;1.50;1.00;;;16.30;68.40;;;;;;5055611;28;20232;-60
2022/07/12 02:52:32;;;;;;;1.80;0.87;;;16.30;68.30;;;;;;5035579;28;20198;-60
2022/07/12 02:54:58;;;;;;;1.10;1.00;;;16.30;68.20;;;;;;5036611;28;20194;-60
2022/07/12 02:57:24;;;;;;;1.33;0.90;;;16.30;68.30;;;;;;5038219;28;20191;-60
2022/07/12 02:59:49;;;;;;;2.53;1.00;;;16.40;67.50;;;;;;5025696;28;20197;-61
2022/07/12 03:02:15;;;;;;;0.80;0.80;;;16.40;66.80;;;;;;5051763;28;20186;-60
2022/07/12 03:04:41;;;;;;;1.33;1.23;;;16.40;67.20;;;;;;5038081;28;20279;-60
2022/07/12 03:07:06;;;;;;;2.50;1.00;;;16.40;67.60;;;;;;5027542;28;20190;-60
2022/07/12 03:09:32;;;;;;;1.73;0.90;;;16.40;68.20;;;;;;5038757;28;20197;-60
2022/07/12 03:11:58;;;;;;;1.10;0.90;;;16.40;68.80;;;;;;5037600;28;20197;-60
2022/07/12 03:14:23;;;;;;;0.90;0.80;;;16.40;68.30;;;;;;5051756;28;20249;-60
2022/07/12 03:16:49;;;;;;;1.40;0.87;;;16.40;68.50;;;;;;5056648;28;20217;-60
2022/07/12 03:19:15;;;;;;;0.63;0.63;;;16.30;68.20;;;;;;5045960;28;20184;-60
2022/07/12 03:21:41;;;;;;;1.50;1.10;;;16.30;68.70;;;;;;5028875;28;20202;-60
2022/07/12 03:24:06;;;;;;;1.73;1.37;;;16.30;68.80;;;;;;5019788;28;20190;-60
2022/07/12 03:26:32;;;;;;;1.13;1.03;;;16.30;69.20;;;;;;5038031;28;20195;-61
2022/07/12 03:29:00;;;;;;;1.07;0.97;;;16.40;69.60;;;;;;5038187;28;20194;-61
2022/07/12 03:31:26;;;;;;;1.00;0.70;;;16.50;68.80;;;;;;5023074;28;20194;-61
2022/07/12 03:33:52;;;;;;;3.77;1.10;;;16.30;68.60;;;;;;5010980;28;20187;-61
2022/07/12 03:36:18;;;;;;;2.17;1.00;;;16.40;67.80;;;;;;5038504;28;20226;-62
2022/07/12 03:38:44;;;;;;;1.67;0.90;;;16.50;67.60;;;;;;5032479;28;20255;-60
2022/07/12 03:41:09;;;;;;;1.23;1.00;;;16.60;67.30;;;;;;5039981;28;20209;-61
2022/07/12 03:43:35;;;;;;;1.33;0.97;;;16.60;67.60;;;;;;5038178;28;20222;-61
2022/07/12 03:46:01;;;;;;;1.50;0.90;;;16.60;67.10;;;;;;5053911;28;20281;-60
2022/07/12 03:48:27;;;;;;;1.30;1.20;;;16.70;67.10;;;;;;5037623;28;20198;-61
2022/07/12 03:50:53;;;;;;;1.30;0.93;;;16.70;67.30;;;;;;5050028;28;20201;-60
2022/07/12 03:53:19;;;;;;;0.80;0.70;;;16.70;67.90;;;;;;5051361;28;20190;-60
2022/07/12 03:55:44;;;;;;;1.90;0.90;;;16.60;68.60;;;;;;5020745;28;20213;-60
2022/07/12 03:58:10;;;;;;;1.47;0.83;;;16.60;68.20;;;;;;5022944;28;20197;-60
2022/07/12 04:00:36;;;;;;;2.13;1.00;;;16.60;68.50;;;;;;5031369;28;20198;-60
2022/07/12 04:03:02;;;;;;;1.17;0.90;;;16.50;68.70;;;;;;5032621;28;20194;-60
2022/07/12 04:05:27;;;;;;;1.37;1.17;;;16.50;69.10;;;;;;5024886;28;20234;-60
2022/07/12 04:07:54;;;;;;;2.97;1.00;;;16.50;69.30;;;;;;5033833;28;20195;-60
2022/07/12 04:10:20;;;;;;;0.60;0.60;;;16.60;68.50;;;;;;5051276;28;20198;-60
2022/07/12 04:12:46;;;;;;;1.63;1.03;;;16.60;68.50;;;;;;5032386;28;20194;-60
2022/07/12 04:15:12;;;;;;;1.60;1.27;;;16.50;68.30;;;;;;5023357;28;20207;-60
2022/07/12 04:17:38;;;;;;;4.53;1.40;;;16.50;68.00;;;;;;5018376;28;20225;-60
2022/07/12 04:20:06;;;;;;;2.40;1.20;;;16.50;67.80;;;;;;5035367;28;20217;-60
2022/07/12 04:22:32;;;;;;;1.20;1.10;;;16.50;67.50;;;;;;5022001;28;20193;-60
2022/07/12 04:24:58;;;;;;;3.03;1.17;;;16.50;68.30;;;;;;5069219;28;20199;-60
2022/07/12 04:27:26;;;;;;;3.00;1.53;;;16.50;68.90;;;;;;5046777;28;20192;-60
2022/07/12 04:29:52;;;;;;;2.13;1.50;;;16.60;69.10;;;;;;5052111;28;20191;-60
2022/07/12 04:32:18;;;;;;;1.90;1.30;;;16.60;68.60;;;;;;5051551;28;20190;-60
2022/07/12 04:34:44;;;;;;;1.60;1.20;;;16.50;68.90;;;;;;5044876;28;20197;-60
2022/07/12 04:37:10;;;;;;;1.90;1.50;;;16.50;69.10;;;;;;5068534;28;20281;-60
2022/07/12 04:39:36;;;;;;;2.17;1.40;;;16.60;68.40;;;;;;5050356;28;20559;-60
2022/07/12 04:42:02;;;;;;;1.87;1.10;;;16.50;68.50;;;;;;5035797;28;20198;-60
2022/07/12 04:44:27;;;;;;;1.90;0.93;;;16.50;69.90;;;;;;5062083;28;20201;-61
2022/07/12 04:46:53;;;;;;;2.53;1.70;;;16.60;69.90;;;;;;5030524;28;20201;-60
2022/07/12 04:49:19;;;;;;;2.20;1.10;;;16.60;69.30;;;;;;5033336;28;20191;-60
2022/07/12 04:51:45;;;;;;;2.53;1.30;;;16.60;69.60;;;;;;5035144;28;20198;-60
2022/07/12 04:54:11;;;;;;;1.63;1.50;;;16.60;68.90;;;;;;5034596;28;20558;-60
2022/07/12 04:56:36;;;;;;;1.73;1.50;;;16.70;67.50;;;;;;5024839;28;20252;-60
2022/07/12 04:59:02;;;;;;;2.60;0.90;;;16.70;68.70;;;;;;5019962;28;20278;-60
2022/07/12 05:01:29;;;;;;;1.80;1.37;;;16.70;69.30;;;;;;5040436;28;20256;-60
2022/07/12 05:03:55;;;;;;;2.47;1.20;;;16.80;69.60;;;;;;5055325;28;20178;-60
2022/07/12 05:06:22;;;;;;;3.07;1.10;;;16.70;69.10;;;;;;5039838;28;20264;-60
2022/07/12 05:08:48;;;;;;;2.77;1.60;;;16.70;69.10;;;;;;5041601;28;20221;-60
2022/07/12 05:11:14;;;;;;;1.83;1.20;;;16.70;69.40;;;;;;5058568;28;20186;-60
2022/07/12 05:13:40;;;;;;;2.70;0.97;;;16.70;68.60;;;;;;5037616;28;20197;-60
2022/07/12 05:16:07;;;;;;;3.03;1.43;;;16.80;67.60;;;;;;5055906;28;20219;-60
2022/07/12 05:18:33;;;;;;;2.03;1.40;;;16.80;69.20;;;;;;5018906;28;20281;-60
2022/07/12 05:20:59;;;;;;;1.50;1.10;;;16.80;68.80;;;;;;5029152;28;20299;-60
2022/07/12 05:23:24;;;;;;;3.80;1.40;;;16.80;68.80;;;;;;5025678;28;20199;-60
2022/07/12 05:25:50;;;;;;;4.40;1.23;;;16.80;69.30;;;;;;5028543;28;20283;-60
2022/07/12 05:28:16;;;;;;;4.57;1.67;;;16.80;68.80;;;;;;5038021;28;20197;-60
2022/07/12 05:30:43;;;;;;;1.67;1.37;;;16.90;69.00;;;;;;5037640;28;20197;-60
2022/07/12 05:33:10;;;;;;;1.63;1.20;;;17.00;67.90;;;;;;5047303;28;20290;-60
2022/07/12 05:35:35;;;;;;;1.50;1.23;;;17.00;69.50;;;;;;5054246;28;20226;-60
2022/07/12 05:38:02;;;;;;;3.10;1.20;;;17.00;68.60;;;;;;5028308;28;20212;-60
2022/07/12 05:40:28;;;;;;;1.90;1.40;;;17.00;67.80;;;;;;5030034;28;20186;-60
2022/07/12 05:42:53;;;;;;;6.37;2.13;;;17.10;67.60;;;;;;5039919;28;20193;-60
2022/07/12 05:45:19;;;;;;;4.50;1.70;;;17.10;67.90;;;;;;5036478;28;20204;-60
2022/07/12 05:47:45;;;;;;;4.17;2.20;;;17.20;68.40;;;;;;5058882;28;20190;-60
2022/07/12 05:50:10;;;;;;;6.07;1.97;;;17.30;67.20;;;;;;5059063;28;20240;-60
2022/07/12 05:55:20;;;;;;;6.23;2.00;;;17.30;67.60;;;;;;5042676;28;20205;-61
2022/07/12 05:57:46;;;;;;;2.87;1.53;;;17.30;65.60;;;;;;5022004;28;20186;-61
2022/07/12 06:00:12;;;;;;;7.60;2.00;;;17.30;65.20;;;;;;5028744;28;20195;-61
2022/07/12 06:02:38;;;;;;;8.97;2.40;;;17.30;65.90;;;;;;5043056;28;20182;-61
2022/07/12 06:05:04;;;;;;;5.20;2.30;;;17.40;63.60;;;;;;5050823;28;20226;-60
2022/07/12 06:07:29;;;;;;;5.37;2.30;;;17.30;64.00;;;;;;5034483;28;20204;-60
2022/07/12 06:09:55;;;;;;;8.40;1.97;;;17.30;64.00;;;;;;5024467;28;20194;-60
2022/07/12 06:12:21;;;;;;;5.47;2.03;;;17.40;63.90;;;;;;5030738;28;20186;-62
2022/07/12 06:14:48;;;;;;;5.70;1.93;;;17.50;63.30;;;;;;5042929;28;20191;-62
2022/07/12 06:17:13;;;;;;;7.23;2.27;;;17.50;63.50;;;;;;5057412;28;20234;-62
2022/07/12 06:19:39;;;;;;;4.53;2.10;;;17.60;64.50;;;;;;5046288;28;20214;-63
2022/07/12 06:22:05;;;;;;;4.07;2.10;;;17.70;65.10;;;;;;5038660;28;20277;-62
2022/07/12 06:24:31;;;;;;;3.70;1.90;;;17.70;63.70;;;;;;5053246;28;20186;-62
2022/07/12 06:26:56;;;;;;;4.43;1.70;;;17.70;64.30;;;;;;5034090;28;20200;-63
2022/07/12 06:29:22;;;;;;;3.07;1.60;;;17.80;62.90;;;;;;5036857;28;20713;-64
2022/07/12 06:31:48;;;;;;;5.03;1.73;;;17.80;63.40;;;;;;5067044;28;20191;-64
2022/07/12 06:34:13;;;;;;;3.20;1.80;;;17.90;63.80;;;;;;5015831;28;20227;-67
2022/07/12 06:36:43;;;;;;;5.37;1.60;;;17.90;62.50;;;;;;5042763;28;20215;-62
2022/07/12 06:39:09;;;;;;;4.17;1.63;;;18.00;62.80;;;;;;5022041;28;20187;-63
2022/07/12 06:41:34;;;;;;;10.03;2.47;;;18.00;63.90;;;;;;5064276;28;20205;-64
2022/07/12 06:44:00;;;;;;;6.07;2.20;;;18.10;63.40;;;;;;5022202;28;20183;-62
2022/07/12 06:46:26;;;;;;;5.60;1.80;;;18.10;63.20;;;;;;5043188;28;20198;-64
2022/07/12 06:48:51;;;;;;;7.03;1.80;;;18.20;62.70;;;;;;5047540;28;20190;-65
2022/07/12 06:51:17;;;;;;;4.43;1.43;;;18.20;62.00;;;;;;5022946;28;20279;-63
2022/07/12 06:53:43;;;;;;;3.60;1.70;;;18.30;61.20;;;;;;5053357;28;20201;-63
2022/07/12 06:56:09;;;;;;;3.07;1.70;;;18.30;60.70;;;;;;5077500;28;20210;-63
2022/07/12 06:58:34;;;;;;;7.97;2.10;;;18.30;61.60;;;;;;5032769;28;20271;-63
2022/07/12 07:01:00;;;;;;;5.13;1.83;;;18.30;61.70;;;;;;5053373;28;20198;-63
2022/07/12 07:03:26;;;;;;;3.60;1.77;;;18.30;62.10;;;;;;5018242;28;20192;-63
2022/07/12 07:05:52;;;;;;;7.47;2.23;;;18.30;62.00;;;;;;5025042;28;20247;-63
2022/07/12 07:08:17;;;;;;;4.60;2.00;;;18.30;63.00;;;;;;5022574;28;20185;-63
2022/07/12 07:10:43;;;;;;;6.27;1.93;;;18.30;63.00;;;;;;5052802;28;20187;-63
2022/07/12 07:13:10;;;;;;;7.03;2.13;;;18.30;61.80;;;;;;5052488;28;20183;-63
2022/07/12 07:15:39;;;;;;;7.17;2.33;;;18.40;61.10;;;;;;5059421;28;20222;-63
2022/07/12 07:18:05;;;;;;;5.13;1.60;;;18.30;62.20;;;;;;5031697;28;20193;-63
2022/07/12 07:20:31;;;;;;;3.80;1.40;;;18.40;60.30;;;;;;5040653;28;20195;-63
2022/07/12 07:22:56;;;;;;;6.07;1.50;;;18.50;59.80;;;;;;5019322;28;20247;-63
2022/07/12 07:25:22;;;;;;;2.83;1.60;;;18.50;60.00;;;;;;5017343;28;20205;-63
2022/07/12 07:27:47;;;;;;;2.93;1.60;;;18.50;59.60;;;;;;5019741;28;20266;-63
2022/07/12 07:32:57;;;;;;;3.57;1.30;;;18.50;61.80;;;;;;5042803;28;20201;-63
2022/07/12 07:35:23;;;;;;;3.90;1.73;;;18.60;60.80;;;;;;5040545;28;20195;-63
2022/07/12 07:37:49;;;;;;;4.70;1.57;;;18.60;61.50;;;;;;5008038;28;20191;-63
2022/07/12 07:40:14;;;;;;;2.53;1.50;;;18.70;61.90;;;;;;5035203;28;20197;-63
2022/07/12 07:42:40;;;;;;;5.43;1.80;;;18.70;60.60;;;;;;5032268;28;20191;-63
2022/07/12 07:45:07;;;;;;;3.10;1.53;;;18.80;60.60;;;;;;5035118;28;20194;-63
2022/07/12 07:47:43;;;;;;;3.50;1.90;;;18.80;59.90;;;;;;5040095;28;20206;-63
2022/07/12 07:50:09;;;;;;;3.63;1.63;;;18.90;62.00;;;;;;5051447;28;20189;-63
2022/07/12 07:52:35;;;;;;;3.50;1.70;;;19.00;60.10;;;;;;5044324;28;20270;-63
2022/07/12 07:55:00;;;;;;;5.57;1.47;;;19.00;59.90;;;;;;5019334;28;20234;-62
2022/07/12 07:57:26;;;;;;;5.47;1.70;;;19.10;59.30;;;;;;5016167;28;20226;-63
2022/07/12 07:59:51;;;;;;;4.03;1.90;;;19.20;59.20;;;;;;5047895;28;20269;-63
2022/07/12 08:02:17;;;;;;;3.67;1.70;;;19.20;60.10;;;;;;5019688;28;20304;-63
2022/07/12 08:04:43;;;;;;;5.10;1.63;;;19.20;59.90;;;;;;5031200;28;20249;-63
2022/07/12 08:07:08;;;;;;;5.07;1.70;;;19.20;60.50;;;;;;4978239;28;20212;-63
2022/07/12 08:09:34;;;;;;;7.40;1.97;;;19.20;60.30;;;;;;4980053;28;20196;-63
2022/07/12 08:12:00;;;;;;;4.97;1.80;;;19.20;60.00;;;;;;4981191;28;20191;-62
2022/07/12 08:14:25;;;;;;;4.17;2.17;;;19.20;60.00;;;;;;4974460;28;20206;-62
2022/07/12 08:16:51;;;;;;;3.60;1.70;;;19.30;59.90;;;;;;4992965;28;20217;-62
2022/07/12 08:19:17;;;;;;;4.67;2.20;;;19.20;59.20;;;;;;4997864;28;20190;-62
2022/07/12 08:21:42;;;;;;;4.43;1.87;;;19.20;60.80;;;;;;4992684;28;20219;-62
2022/07/12 08:24:08;;;;;;;7.27;2.07;;;19.20;62.40;;;;;;4978929;28;20192;-62
2022/07/12 08:26:34;;;;;;;4.30;1.83;;;19.10;63.20;;;;;;5022105;28;20217;-62
2022/07/12 08:28:59;;;;;;;1.67;1.40;;;19.10;64.60;;;;;;5000634;28;20192;-63
2022/07/12 08:31:25;;;;;;;3.23;1.30;;;19.10;63.30;;;;;;4999858;28;20191;-63
2022/07/12 08:33:51;;;;;;;1.43;1.30;;;19.10;64.90;;;;;;5019850;28;20199;-63
2022/07/12 08:36:17;;;;;;;3.03;1.50;;;19.10;64.90;;;;;;4989574;28;20290;-64
2022/07/12 08:38:44;;;;;;;1.60;1.10;;;19.10;64.90;;;;;;5001097;28;20259;-63
2022/07/12 08:41:16;;;;;;;2.10;1.30;;;19.10;67.00;;;;;;5018314;28;20195;-64
2022/07/12 08:43:42;;;;;;;2.90;1.13;;;19.00;66.50;;;;;;5025807;28;20190;-62
2022/07/12 08:46:10;;;;;;;1.20;1.10;;;19.00;65.60;;;;;;5002506;28;20199;-62
2022/07/12 08:48:37;;;;;;;5.33;1.27;;;19.00;64.30;;;;;;5016157;28;20291;-61
2022/07/12 08:51:08;;;;;;;2.20;1.27;;;19.00;65.30;;;;;;4997539;28;20199;-62
2022/07/12 08:53:35;;;;;;;3.73;1.00;;;19.00;67.00;;;;;;5015199;28;20191;-63
2022/07/12 08:56:02;;;;;;;2.27;1.07;;;18.90;66.00;;;;;;5014500;28;20327;-63
2022/07/12 08:58:28;;;;;;;2.67;1.10;;;18.90;66.50;;;;;;5011581;28;20202;-65
2022/07/12 09:00:54;;;;;;;1.30;1.00;;;19.00;64.80;;;;;;5030894;28;20191;-67
2022/07/12 09:03:20;;;;;;;1.33;1.23;;;19.00;67.40;;;;;;4998037;28;20191;-66
2022/07/12 09:05:54;;;;;;;2.53;1.17;;;19.20;67.80;;;;;;5013556;28;20739;-67
2022/07/12 09:08:25;;;;;;;1.00;1.00;;;19.20;64.60;;;;;;5049715;28;20256;-67
2022/07/12 09:11:02;;;;;;;2.47;0.87;;;19.20;64.80;;;;;;5050196;28;20205;-67
2022/07/12 09:13:52;;;;;;;1.33;0.90;;;19.30;65.10;;;;;;5035791;28;20187;-64
2022/07/12 09:16:20;;;;;;;1.73;1.10;;;19.40;67.70;;;;;;5050429;28;20222;-63
2022/07/12 09:18:47;;;;;;;0.90;0.87;;;19.50;66.70;;;;;;5034856;28;20410;-63
2022/07/12 09:21:27;;;;;;;1.07;0.90;;;19.60;66.60;;;;;;5033441;28;20218;-63
2022/07/12 09:23:57;;;;;;;0.87;0.87;;;19.70;67.50;;;;;;5033315;28;20254;-61
2022/07/12 09:26:24;;;;;;;1.30;0.97;;;19.70;63.50;;;;;;5051263;28;20243;-62
2022/07/12 09:28:51;;;;;;;0.93;0.80;;;19.80;65.70;;;;;;5048759;28;20190;-61
2022/07/12 09:31:17;;;;;;;0.80;0.80;;;19.80;64.30;;;;;;5061395;28;20223;-61
2022/07/12 09:36:55;;;;;;;1.40;1.10;;;19.90;66.20;;;;;;5064912;28;20228;-62
2022/07/12 09:39:23;;;;;;;0.77;0.77;;;20.00;66.40;;;;;;5023709;28;20193;-62
2022/07/12 09:41:49;;;;;;;1.37;1.00;;;20.00;66.20;;;;;;5065427;28;20193;-62
2022/07/12 09:44:18;;;;;;;0.80;0.80;;;20.00;63.30;;;;;;5051358;28;20187;-62
2022/07/12 09:46:45;;;;;;;0.80;0.80;;;20.00;65.10;;;;;;5026776;28;20198;-62
2022/07/12 09:49:10;;;;;;;0.93;0.90;;;20.10;65.20;;;;;;5050550;28;20277;-62
2022/07/12 09:51:38;;;;;;;0.97;0.83;;;20.10;65.20;;;;;;5054915;28;20256;-62
2022/07/12 09:54:07;;;;;;;0.70;0.70;;;20.10;64.30;;;;;;5059557;28;20186;-62
2022/07/12 09:56:39;;;;;;;3.07;1.00;;;20.20;62.70;;;;;;5052892;28;20293;-63
2022/07/12 09:59:10;;;;;;;1.43;1.10;;;20.20;63.10;;;;;;5050716;28;20183;-62
2022/07/12 10:01:37;;;;;;;1.00;0.90;;;20.20;61.60;;;;;;5067317;28;20210;-62
2022/07/12 10:04:05;;;;;;;2.17;0.90;;;20.30;64.30;;;;;;5029271;28;20188;-62
2022/07/12 10:06:31;;;;;;;0.80;0.80;;;20.50;64.10;;;;;;5055920;28;20225;-62
2022/07/12 10:08:57;;;;;;;0.60;0.60;;;20.50;63.20;;;;;;5035402;28;20194;-62
2022/07/12 10:11:24;;;;;;;0.63;0.53;;;20.60;57.40;;;;;;5051396;28;20183;-62
2022/07/12 10:13:50;;;;;;;0.70;0.70;;;20.70;57.00;;;;;;5054222;28;20217;-63
2022/07/12 10:16:26;;;;;;;1.63;0.70;;;20.70;57.40;;;;;;5038809;28;20214;-63
2022/07/12 10:19:21;;;;;;;0.90;0.60;;;20.70;57.60;;;;;;5037515;28;20185;-62
2022/07/12 10:21:49;;;;;;;0.60;0.60;;;20.80;55.60;;;;;;5052348;28;20194;-62
2022/07/12 10:24:41;;;;;;;1.67;0.70;;;20.80;56.20;;;;;;5063151;28;20194;-62
2022/07/12 10:27:16;;;;;;;1.07;0.80;;;20.80;56.30;;;;;;5050106;28;20205;-62
2022/07/12 10:29:43;;;;;;;1.10;0.90;;;20.90;57.80;;;;;;5053624;28;20196;-62
2022/07/12 10:32:34;;;;;;;0.80;0.73;;;20.90;55.70;;;;;;5066591;28;20182;-62
2022/07/12 10:35:02;;;;;;;0.77;0.77;;;20.90;56.20;;;;;;5054039;28;20185;-63
2022/07/12 10:37:29;;;;;;;0.80;0.63;;;20.90;57.50;;;;;;5038745;28;20218;-62
2022/07/12 10:40:17;;;;;;;0.83;0.80;;;20.90;57.70;;;;;;5054056;28;20183;-63
2022/07/12 10:43:04;;;;;;;1.20;0.80;;;21.00;57.10;;;;;;5071656;28;20188;-62
2022/07/12 10:45:36;;;;;;;0.70;0.70;;;21.00;55.70;;;;;;5044788;28;20185;-62
2022/07/12 10:48:01;;;;;;;1.80;1.30;;;21.10;56.10;;;;;;5056704;28;20182;-62
2022/07/12 10:50:45;;;;;;;1.27;0.80;;;21.10;58.90;;;;;;5052443;28;20193;-63
2022/07/12 10:53:27;;;;;;;2.50;1.10;;;21.10;56.80;;;;;;5056687;28;20179;-62
2022/07/12 10:56:21;;;;;;;0.60;0.60;;;21.10;60.60;;;;;;5052508;28;20202;-67
2022/07/12 10:58:49;;;;;;;0.90;0.70;;;21.10;56.40;;;;;;5057678;28;20667;-65
2022/07/12 11:01:22;;;;;;;0.97;0.63;;;21.10;61.70;;;;;;5053540;28;20174;-62
2022/07/12 11:03:51;;;;;;;0.83;0.80;;;21.00;62.40;;;;;;5059861;28;20198;-61
2022/07/12 11:06:25;;;;;;;1.10;0.80;;;20.90;58.30;;;;;;5049553;28;20257;-62
2022/07/12 11:09:03;;;;;;;0.87;0.87;;;20.90;59.70;;;;;;5065057;28;20255;-62
2022/07/12 11:11:32;;;;;;;0.87;0.87;;;20.90;57.20;;;;;;5069138;28;20182;-61
2022/07/12 11:14:00;;;;;;;1.10;0.70;;;21.00;53.30;;;;;;5054387;28;20174;-62
2022/07/12 11:16:29;;;;;;;0.70;0.70;;;21.00;56.00;;;;;;5043972;28;20202;-62
2022/07/12 11:18:55;;;;;;;0.80;0.60;;;21.20;55.20;;;;;;5037182;28;20240;-62
2022/07/12 11:21:24;;;;;;;1.83;0.83;;;21.30;57.20;;;;;;5048869;28;20185;-61
2022/07/12 11:23:50;;;;;;;1.23;0.67;;;21.50;53.10;;;;;;5041853;28;20194;-62
2022/07/12 11:26:16;;;;;;;0.70;0.70;;;21.60;53.00;;;;;;5036586;28;20182;-62
2022/07/12 11:28:43;;;;;;;1.50;0.80;;;21.60;51.20;;;;;;5053548;28;20178;-63
2022/07/12 11:31:14;;;;;;;0.97;0.70;;;21.70;51.50;;;;;;5016727;28;20186;-61
2022/07/12 11:33:42;;;;;;;0.60;0.60;;;21.50;50.90;;;;;;5055391;28;20186;-62
2022/07/12 11:36:12;;;;;;;0.70;0.70;;;21.50;51.50;;;;;;5042852;28;20241;-62
2022/07/12 11:38:41;;;;;;;0.70;0.70;;;21.40;53.10;;;;;;5051758;28;20186;-62
2022/07/12 11:41:08;;;;;;;0.93;0.70;;;21.40;53.00;;;;;;5052645;28;20190;-62
2022/07/12 11:43:37;;;;;;;0.70;0.70;;;21.50;51.50;;;;;;5032724;28;20183;-62
2022/07/12 11:46:07;;;;;;;0.70;0.70;;;21.50;52.90;;;;;;5039917;28;20197;-60
2022/07/12 11:48:35;;;;;;;0.73;0.73;;;21.60;54.10;;;;;;5052634;28;20204;-62
2022/07/12 11:51:19;;;;;;;0.60;0.60;;;21.70;53.80;;;;;;5050418;28;20190;-62
2022/07/12 11:53:52;;;;;;;1.97;0.70;;;21.80;54.30;;;;;;5027559;28;20282;-62
2022/07/12 11:56:28;;;;;;;0.50;0.50;;;21.90;55.30;;;;;;5062716;28;20235;-62
2022/07/12 11:58:57;;;;;;;0.83;0.80;;;21.90;55.00;;;;;;5050251;28;20217;-62
2022/07/12 12:01:23;;;;;;;0.80;0.80;;;22.00;55.60;;;;;;5021047;28;20182;-62
2022/07/12 12:03:49;;;;;;;0.70;0.70;;;22.20;55.20;;;;;;5019089;28;20197;-61
2022/07/12 12:06:15;;;;;;;1.00;0.90;;;22.30;54.90;;;;;;5045072;28;20237;-62
2022/07/12 12:08:41;;;;;;;2.40;0.80;;;22.60;53.30;;;;;;5035950;28;20208;-61
2022/07/12 12:11:07;;;;;;;0.70;0.70;;;22.90;50.70;;;;;;5053076;28;20194;-62
2022/07/12 12:13:33;;;;;;;1.20;1.10;;;23.00;53.20;;;;;;5034508;28;20216;-62
2022/07/12 12:16:01;;;;;;;0.83;0.70;;;23.10;54.50;;;;;;5040780;28;20259;-62
2022/07/12 12:18:36;;;;;;;0.80;0.80;;;23.20;51.80;;;;;;5042846;28;20179;-61
2022/07/12 12:21:11;;;;;;;1.43;0.70;;;23.30;52.80;;;;;;5074247;28;20185;-61
2022/07/12 12:23:39;;;;;;;2.60;0.80;;;23.70;53.50;;;;;;5076162;28;20181;-61
2022/07/12 12:26:15;;;;;;;0.60;0.60;;;23.80;51.70;;;;;;5059528;28;20192;-61
2022/07/12 12:28:48;;;;;;;1.43;0.90;;;24.10;51.00;;;;;;5055174;28;20215;-61
2022/07/12 12:31:16;;;;;;;1.67;0.80;;;24.20;52.10;;;;;;5052316;28;20189;-61
2022/07/12 12:33:44;;;;;;;0.70;0.70;;;24.40;47.80;;;;;;5050064;28;20191;-61
2022/07/12 12:36:15;;;;;;;0.70;0.70;;;24.60;48.30;;;;;;5058857;28;20263;-61
2022/07/12 12:38:44;;;;;;;0.90;0.90;;;24.50;46.30;;;;;;5054557;28;20193;-61
2022/07/12 12:41:11;;;;;;;1.67;0.60;;;24.30;51.60;;;;;;5053432;28;20206;-61
2022/07/12 12:43:37;;;;;;;0.80;0.80;;;23.80;49.80;;;;;;5063857;28;20268;-61
2022/07/12 12:46:03;;;;;;;1.63;0.87;;;23.70;51.10;;;;;;5051593;28;20187;-61
2022/07/12 12:48:30;;;;;;;1.10;0.70;;;23.60;53.30;;;;;;5076921;28;20259;-61
2022/07/12 12:51:03;;;;;;;0.77;0.77;;;23.50;48.50;;;;;;5038366;28;20253;-62
2022/07/12 12:53:29;;;;;;;0.87;0.57;;;23.50;49.90;;;;;;5052179;28;20254;-62
2022/07/12 12:55:56;;;;;;;1.17;0.70;;;23.30;50.50;;;;;;5031380;28;20234;-62
2022/07/12 12:58:24;;;;;;;0.90;0.90;;;23.30;53.40;;;;;;5050614;28;20182;-62
2022/07/12 13:00:52;;;;;;;0.67;0.67;;;23.30;52.20;;;;;;5067036;28;20178;-62